Terminal Aerodrome Forecast
Issued by NWS Chicago, IL

Home | Current Version | Previous Version | Graphics & Text | Print | Product List | Glossary On
Versions: 1 2 3 4 5 6 7 8 9 10 11 12 13 14 15 16 17 18 19 20 21 22 23 24 25 26 27 28 29 30 31 32 33
000
FTUS43 KLOT 242300
TAFRFD
TAF
KRFD 242335Z 2500/2524 30012KT P6SM -RASN BKN008 OVC015
     FM250200 29013KT 6SM -SN BR OVC015
     FM250300 29015KT P6SM SCT008 OVC010
     FM251100 23012G17KT P6SM BKN025
     FM251800 22014KT P6SM SCT015 BKN200
     FM252100 20013KT P6SM FEW020 BKN200=

USA.gov is the U.S. government's official web portal to all federal, state and local government web resources and services.